createdAt,value
2022-09-17T00:01:08.510Z,22.05
2022-09-17T00:02:40.187Z,22.07
2022-09-17T00:04:11.900Z,22.08
2022-09-17T00:05:43.473Z,22.05
2022-09-17T00:07:15.866Z,22.00
2022-09-17T00:08:47.512Z,21.98
2022-09-17T00:10:19.950Z,21.99
2022-09-17T00:11:51.476Z,21.94
2022-09-17T00:13:23.398Z,21.91
2022-09-17T00:14:55.131Z,21.87
2022-09-17T00:16:27.988Z,21.84
2022-09-17T00:17:59.597Z,21.88
2022-09-17T00:19:31.097Z,21.90
2022-09-17T00:21:03.810Z,21.94
2022-09-17T00:22:35.323Z,21.94
2022-09-17T00:24:06.967Z,21.93
2022-09-17T00:25:39.428Z,21.90
2022-09-17T00:27:10.965Z,21.87
2022-09-17T00:28:45.540Z,21.88
2022-09-17T00:30:17.061Z,21.96
2022-09-17T00:31:48.790Z,22.02
2022-09-17T00:33:21.276Z,22.07
2022-09-17T00:34:53.127Z,22.12
2022-09-17T00:36:24.675Z,22.17
2022-09-17T00:37:56.158Z,22.23
2022-09-17T00:39:27.634Z,22.27
2022-09-17T00:40:59.370Z,22.30
2022-09-17T00:42:31.179Z,22.38
2022-09-17T00:44:23.036Z,22.43
2022-09-17T00:45:54.537Z,22.51
2022-09-17T00:47:26.211Z,22.55
2022-09-17T00:48:58.419Z,22.56
2022-09-17T00:50:31.558Z,22.55
2022-09-17T00:52:06.825Z,22.57
2022-09-17T00:53:40.846Z,22.60
2022-09-17T00:55:18.441Z,22.63
2022-09-17T00:56:50.297Z,22.67
2022-09-17T00:58:22.247Z,22.68
2022-09-17T00:59:53.998Z,22.66
2022-09-17T01:01:25.607Z,22.61
2022-09-17T01:02:57.440Z,22.61
2022-09-17T01:04:28.915Z,22.63
2022-09-17T01:06:05.032Z,22.63
2022-09-17T01:07:36.565Z,22.62
2022-09-17T01:16:49.350Z,22.44
2022-09-17T01:18:29.446Z,22.45
2022-09-17T01:20:13.560Z,22.47
2022-09-17T01:22:03.198Z,22.50
2022-09-17T01:23:34.774Z,22.52
2022-09-17T01:25:06.894Z,22.52
2022-09-17T01:26:55.004Z,22.49
2022-09-17T01:28:46.958Z,22.49
2022-09-17T01:30:28.260Z,22.53
2022-09-17T01:32:00.231Z,22.52
2022-09-17T01:33:34.543Z,22.49
2022-09-17T01:35:09.156Z,22.39
2022-09-17T01:36:59.443Z,22.31
2022-09-17T01:38:33.040Z,22.24
2022-09-17T01:40:04.878Z,22.21
2022-09-17T01:41:48.171Z,22.15
2022-09-17T01:43:36.977Z,22.13
2022-09-17T01:45:10.178Z,22.02
2022-09-17T01:46:49.586Z,21.97
2022-09-17T01:48:22.150Z,21.95
2022-09-17T01:49:55.251Z,21.92
2022-09-17T01:51:27.769Z,21.93
2022-09-17T01:52:59.654Z,21.92
2022-09-17T01:54:38.081Z,21.85
2022-09-17T01:56:13.751Z,21.82
2022-09-17T01:57:47.883Z,21.84
2022-09-17T01:59:23.323Z,21.86
2022-09-17T02:00:56.591Z,21.88
2022-09-17T02:02:31.197Z,21.88
2022-09-17T02:04:13.789Z,21.87
2022-09-17T02:05:53.458Z,21.88
2022-09-17T02:07:26.186Z,21.91
2022-09-17T02:08:58.582Z,21.94
2022-09-17T02:10:31.449Z,21.88
2022-09-17T02:12:04.245Z,21.75
2022-09-17T02:13:41.055Z,21.71
2022-09-17T02:15:18.050Z,21.62
2022-09-17T02:16:52.913Z,21.56
2022-09-17T02:18:26.400Z,21.44
2022-09-17T02:19:57.968Z,21.24
2022-09-17T02:21:35.409Z,21.08
2022-09-17T02:23:09.009Z,20.94
2022-09-17T02:24:49.180Z,20.82
2022-09-17T02:26:20.908Z,20.70
2022-09-17T02:28:03.580Z,20.53
2022-09-17T02:29:39.365Z,20.39
2022-09-17T02:31:12.099Z,20.33
2022-09-17T02:32:43.646Z,20.24
2022-09-17T02:34:15.228Z,20.11
2022-09-17T02:35:47.460Z,20.04
2022-09-17T02:37:22.081Z,19.97
2022-09-17T02:38:58.787Z,19.94
2022-09-17T02:40:31.724Z,19.95
2022-09-17T02:42:17.710Z,19.98
2022-09-17T02:43:56.469Z,19.98
2022-09-17T02:45:46.894Z,20.08
2022-09-17T02:47:18.430Z,20.07
2022-09-17T02:49:10.316Z,20.06
2022-09-17T02:51:02.158Z,20.01
2022-09-17T02:52:36.917Z,19.99
2022-09-17T02:54:28.778Z,19.99
2022-09-17T02:56:00.247Z,19.94
2022-09-17T02:57:38.271Z,19.94
2022-09-17T02:59:15.822Z,19.93
2022-09-17T03:00:47.638Z,19.96
2022-09-17T03:02:19.308Z,19.95
2022-09-17T03:03:51.580Z,19.97
2022-09-17T03:05:23.133Z,20.01
2022-09-17T03:06:54.846Z,20.06
2022-09-17T03:08:30.099Z,20.09
2022-09-17T03:10:01.601Z,20.08
2022-09-17T03:11:33.970Z,20.11
2022-09-17T03:13:05.877Z,20.13
2022-09-17T03:14:37.480Z,20.15
2022-09-17T03:16:09.644Z,20.19
2022-09-17T03:17:41.368Z,20.23
2022-09-17T03:19:13.448Z,20.29
2022-09-17T03:20:46.578Z,20.36
2022-09-17T03:22:18.532Z,20.47
2022-09-17T03:23:50.082Z,20.58
2022-09-17T03:25:21.803Z,20.67
2022-09-17T03:26:53.364Z,20.75
2022-09-17T03:28:26.625Z,20.77
2022-09-17T03:29:58.851Z,20.73
2022-09-17T03:31:30.628Z,20.65
2022-09-17T03:33:02.145Z,20.61
2022-09-17T03:34:33.655Z,20.62
2022-09-17T03:36:05.341Z,20.65
2022-09-17T03:37:37.041Z,20.69
2022-09-17T03:39:08.863Z,20.72
2022-09-17T03:40:40.745Z,20.74
2022-09-17T03:42:12.678Z,20.79
2022-09-17T03:43:44.194Z,20.84
2022-09-17T03:45:15.825Z,20.87
2022-09-17T03:46:47.655Z,20.92
2022-09-17T03:48:19.441Z,20.93
2022-09-17T03:49:52.482Z,20.94
2022-09-17T03:51:24.619Z,20.97
2022-09-17T03:52:56.319Z,21.01
2022-09-17T03:54:27.898Z,21.03
2022-09-17T03:56:00.195Z,21.06
2022-09-17T03:57:31.711Z,21.07
2022-09-17T03:59:03.266Z,21.08
2022-09-17T04:00:37.191Z,21.09
2022-09-17T04:02:09.122Z,21.07
2022-09-17T04:03:40.783Z,21.06
2022-09-17T04:05:12.602Z,21.04
2022-09-17T04:06:44.130Z,20.98
2022-09-17T04:08:15.712Z,20.95
2022-09-17T04:09:47.218Z,20.92
2022-09-17T04:11:18.739Z,20.88
2022-09-17T04:12:50.283Z,20.84
2022-09-17T04:14:21.822Z,20.78
2022-09-17T04:15:53.518Z,20.78
2022-09-17T04:17:25.168Z,20.79
2022-09-17T04:18:56.722Z,20.78
2022-09-17T04:20:28.421Z,20.82
2022-09-17T04:22:00.382Z,20.87
2022-09-17T04:23:32.022Z,20.93
2022-09-17T04:25:03.643Z,21.00
2022-09-17T04:26:35.223Z,21.00
2022-09-17T04:28:06.744Z,21.06
2022-09-17T04:29:38.289Z,21.12
2022-09-17T04:31:09.899Z,21.20
2022-09-17T04:32:41.485Z,21.20
2022-09-17T04:34:13.150Z,21.22
2022-09-17T04:35:45.735Z,21.12
2022-09-17T04:37:17.612Z,21.01
2022-09-17T04:38:49.397Z,20.90
2022-09-17T04:40:21.400Z,20.80
2022-09-17T04:41:53.116Z,20.78
2022-09-17T04:43:25.226Z,20.77
2022-09-17T04:44:58.306Z,20.73
2022-09-17T04:46:30.320Z,20.62
2022-09-17T04:48:02.281Z,20.52
2022-09-17T04:49:35.154Z,20.44
2022-09-17T04:51:06.922Z,20.39
2022-09-17T04:52:42.416Z,20.35
2022-09-17T04:54:14.887Z,20.34
2022-09-17T04:55:46.519Z,20.31
2022-09-17T04:57:18.215Z,20.30
2022-09-17T04:58:49.742Z,20.31
2022-09-17T05:00:23.342Z,20.29
2022-09-17T05:01:55.441Z,20.29
2022-09-17T05:03:28.044Z,20.31
2022-09-17T05:05:00.130Z,20.33
2022-09-17T05:06:31.844Z,20.28
2022-09-17T05:08:03.945Z,20.25
2022-09-17T05:09:35.840Z,20.23
2022-09-17T05:11:07.628Z,20.24
2022-09-17T05:12:39.550Z,20.25
2022-09-17T05:14:11.173Z,20.26
2022-09-17T05:15:42.803Z,20.29
2022-09-17T05:17:14.771Z,20.27
2022-09-17T05:18:46.606Z,20.28
2022-09-17T05:20:18.450Z,20.33
2022-09-17T05:21:50.392Z,20.31
2022-09-17T05:23:22.209Z,20.23
2022-09-17T05:24:54.000Z,20.12
2022-09-17T05:26:25.867Z,20.07
2022-09-17T05:27:57.569Z,20.03
2022-09-17T05:29:31.326Z,20.02
2022-09-17T05:31:02.964Z,20.01
2022-09-17T05:32:35.188Z,20.01
2022-09-17T05:34:07.773Z,20.04
2022-09-17T05:35:39.759Z,20.10
2022-09-17T05:37:11.712Z,20.16
2022-09-17T05:38:43.365Z,20.22
2022-09-17T05:40:15.717Z,20.29
2022-09-17T05:41:47.419Z,20.35
2022-09-17T05:43:19.055Z,20.41
2022-09-17T05:44:51.065Z,20.46
2022-09-17T05:46:24.768Z,20.50
2022-09-17T05:47:56.863Z,20.56
2022-09-17T05:49:28.416Z,20.63
2022-09-17T05:51:00.242Z,20.69
2022-09-17T05:52:31.825Z,20.73
2022-09-17T05:54:03.505Z,20.77
2022-09-17T05:55:38.249Z,20.79
2022-09-17T05:57:09.866Z,20.85
2022-09-17T05:58:41.590Z,20.89
2022-09-17T06:00:13.458Z,20.92
2022-09-17T06:01:45.296Z,20.94
2022-09-17T06:03:17.879Z,20.96
2022-09-17T06:04:49.953Z,20.99
2022-09-17T06:06:21.766Z,21.05
2022-09-17T06:07:53.414Z,21.09
2022-09-17T06:09:25.043Z,21.10
2022-09-17T06:11:01.550Z,21.10
2022-09-17T06:12:35.849Z,21.10
2022-09-17T06:14:07.578Z,21.11
2022-09-17T06:15:39.311Z,21.11
2022-09-17T06:17:11.603Z,21.10
2022-09-17T06:18:43.302Z,21.16
2022-09-17T06:20:16.476Z,21.18
2022-09-17T06:21:48.238Z,21.19
2022-09-17T06:23:19.963Z,21.18
2022-09-17T06:24:51.760Z,21.20
2022-09-17T06:26:23.350Z,21.26
2022-09-17T06:27:54.981Z,21.29
2022-09-17T06:29:27.114Z,21.33
2022-09-17T06:31:02.217Z,21.36
2022-09-17T06:32:34.055Z,21.42
2022-09-17T06:34:05.899Z,21.50
2022-09-17T06:35:37.615Z,21.61
2022-09-17T06:37:11.854Z,21.72
2022-09-17T06:38:43.487Z,21.87
2022-09-17T06:40:16.353Z,22.00
2022-09-17T06:41:48.178Z,22.18
2022-09-17T06:43:19.984Z,22.36
2022-09-17T06:44:54.578Z,22.52
2022-09-17T06:46:26.449Z,22.64
2022-09-17T06:47:58.272Z,22.75
2022-09-17T06:49:31.681Z,22.89
2022-09-17T06:51:07.147Z,22.97
2022-09-17T06:52:39.122Z,23.07
2022-09-17T06:54:10.742Z,23.16
2022-09-17T06:55:42.421Z,23.22
2022-09-17T06:57:14.087Z,23.34
2022-09-17T06:58:45.853Z,23.50
2022-09-17T07:00:17.508Z,23.65
2022-09-17T07:01:49.469Z,23.73
2022-09-17T07:03:23.330Z,23.88
2022-09-17T07:04:55.351Z,24.02
2022-09-17T07:06:27.266Z,24.19
2022-09-17T07:09:30.917Z,24.56
2022-09-17T07:11:02.552Z,24.74
2022-09-17T07:12:34.198Z,24.90
2022-09-17T07:14:07.089Z,25.08
2022-09-17T07:15:38.667Z,25.21
2022-09-17T07:17:10.684Z,25.40
2022-09-17T07:18:42.313Z,25.53
2022-09-17T07:20:13.919Z,25.57
2022-09-17T07:21:45.516Z,25.62
2022-09-17T07:23:17.111Z,25.79
2022-09-17T07:24:48.907Z,25.98
2022-09-17T07:26:20.430Z,26.13
2022-09-17T07:27:51.989Z,26.11
2022-09-17T07:29:26.654Z,26.17
2022-09-17T07:30:58.399Z,26.20
2022-09-17T07:32:30.846Z,26.20
2022-09-17T07:34:02.770Z,26.17
2022-09-17T07:35:34.317Z,26.10
2022-09-17T07:37:06.129Z,26.10
2022-09-17T07:38:38.943Z,26.13
2022-09-17T07:40:11.103Z,26.18
2022-09-17T07:41:43.095Z,26.15
2022-09-17T07:43:15.759Z,26.16
2022-09-17T07:44:47.409Z,26.17
2022-09-17T07:46:19.631Z,26.15
2022-09-17T07:47:51.696Z,26.18
2022-09-17T07:49:23.599Z,26.24
2022-09-17T07:50:56.018Z,26.22
2022-09-17T07:52:28.407Z,26.21
2022-09-17T07:54:00.585Z,26.21
2022-09-17T07:55:32.843Z,26.27
2022-09-17T07:57:04.875Z,26.32
2022-09-17T07:58:38.190Z,26.34
2022-09-17T08:00:10.332Z,26.42
2022-09-17T08:01:43.357Z,26.47
2022-09-17T08:03:15.147Z,26.46
2022-09-17T08:04:46.710Z,26.47
2022-09-17T08:06:22.016Z,26.47
2022-09-17T08:07:54.434Z,26.52
2022-09-17T08:09:25.999Z,26.60
2022-09-17T08:11:00.439Z,26.72
2022-09-17T08:12:31.961Z,26.85
2022-09-17T08:14:04.350Z,26.87
2022-09-17T08:15:36.260Z,26.91
2022-09-17T08:17:08.607Z,26.96
2022-09-17T08:18:40.200Z,27.01
2022-09-17T08:20:12.483Z,27.11
2022-09-17T08:21:44.274Z,27.22
2022-09-17T08:23:16.360Z,27.36
2022-09-17T08:24:48.581Z,27.45
2022-09-17T08:26:22.916Z,27.46
2022-09-17T08:27:56.079Z,27.29
2022-09-17T08:29:30.072Z,27.16
2022-09-17T08:31:04.964Z,27.16
2022-09-17T08:32:36.557Z,27.17
2022-09-17T08:34:09.401Z,27.14
2022-09-17T08:35:41.006Z,27.13
2022-09-17T08:37:12.667Z,27.07
2022-09-17T08:38:44.455Z,27.01
2022-09-17T08:40:21.159Z,26.98
2022-09-17T08:41:55.788Z,26.97
2022-09-17T08:43:27.540Z,26.91
2022-09-17T08:45:00.777Z,26.83
2022-09-17T08:46:33.638Z,26.75
2022-09-17T08:48:05.427Z,26.62
2022-09-17T08:49:40.576Z,26.47
2022-09-17T08:51:18.152Z,26.36
2022-09-17T08:53:03.102Z,26.33
2022-09-17T08:54:50.598Z,26.31
2022-09-17T08:56:22.275Z,26.16
2022-09-17T08:57:53.946Z,25.92
2022-09-17T08:59:46.275Z,25.76
2022-09-17T09:01:21.351Z,25.56
2022-09-17T09:02:56.400Z,25.48
2022-09-17T09:04:31.732Z,25.28
2022-09-17T09:06:07.247Z,25.06
2022-09-17T09:07:53.078Z,24.85
2022-09-17T09:09:25.991Z,24.71
2022-09-17T09:10:58.573Z,24.54
2022-09-17T09:12:31.985Z,24.43
2022-09-17T09:14:06.691Z,24.27
2022-09-17T09:15:41.551Z,24.03
2022-09-17T09:17:13.669Z,23.84
2022-09-17T09:18:45.387Z,23.66
2022-09-17T09:20:18.014Z,23.45
2022-09-17T09:22:08.675Z,23.26
2022-09-17T09:23:54.628Z,23.02
2022-09-17T09:25:29.644Z,22.95
2022-09-17T09:27:04.193Z,22.96
2022-09-17T09:28:48.998Z,23.00
2022-09-17T09:30:23.856Z,23.07
2022-09-17T09:32:20.497Z,23.10
2022-09-17T09:41:37.784Z,22.91
2022-09-17T09:43:12.627Z,22.81
2022-09-17T09:44:44.436Z,22.75
2022-09-17T09:46:16.220Z,22.69
2022-09-17T09:47:51.490Z,22.66
2022-09-17T09:49:42.632Z,22.58
2022-09-17T09:51:36.958Z,22.56
2022-09-17T09:53:40.938Z,22.57
2022-09-17T09:55:38.700Z,22.57
2022-09-17T09:57:13.691Z,22.62
2022-09-17T09:58:45.411Z,22.59
2022-09-17T10:00:26.999Z,22.57
2022-09-17T10:01:58.741Z,22.50
2022-09-17T10:03:32.476Z,22.48
2022-09-17T10:05:10.114Z,22.48
2022-09-17T10:06:41.808Z,22.41
2022-09-17T10:08:13.913Z,22.36
2022-09-17T10:09:45.803Z,22.27
2022-09-17T10:11:21.680Z,22.22
2022-09-17T10:13:05.189Z,22.14
2022-09-17T10:14:37.353Z,21.96
2022-09-17T10:16:19.017Z,21.77
2022-09-17T10:17:51.310Z,21.57
2022-09-17T10:19:25.694Z,21.51
2022-09-17T10:21:00.467Z,21.50
2022-09-17T10:22:32.984Z,21.41
2022-09-17T10:24:05.415Z,21.30
2022-09-17T10:25:41.654Z,21.18
2022-09-17T10:27:17.667Z,21.05
2022-09-17T10:28:53.251Z,20.96
2022-09-17T10:30:26.619Z,20.90
2022-09-17T10:31:58.778Z,20.89
2022-09-17T10:33:31.424Z,20.91
2022-09-17T10:35:06.155Z,20.97
2022-09-17T10:36:42.341Z,20.96
2022-09-17T10:38:32.507Z,20.92
2022-09-17T10:40:16.001Z,20.93
2022-09-17T10:42:04.406Z,20.91
2022-09-17T10:43:36.312Z,20.88
2022-09-17T10:45:16.662Z,20.87
2022-09-17T10:46:54.290Z,20.84
2022-09-17T10:48:29.090Z,20.78
2022-09-17T10:50:08.383Z,20.79
2022-09-17T10:51:40.290Z,20.82
2022-09-17T10:53:15.541Z,20.91
2022-09-17T10:54:56.363Z,20.97
2022-09-17T10:56:36.408Z,21.00
2022-09-17T10:58:08.032Z,21.05
2022-09-17T10:59:59.234Z,21.06
2022-09-17T11:01:38.725Z,21.05
2022-09-17T11:03:32.399Z,21.05
2022-09-17T11:05:04.194Z,21.06
2022-09-17T11:06:38.942Z,21.11
2022-09-17T11:08:13.037Z,21.18
2022-09-17T11:10:00.018Z,21.23
2022-09-17T11:11:50.344Z,21.27
2022-09-17T11:13:24.995Z,21.27
2022-09-17T11:15:02.047Z,21.22
2022-09-17T11:16:36.749Z,21.14
2022-09-17T11:18:24.734Z,21.07
2022-09-17T11:20:02.680Z,21.01
2022-09-17T11:21:34.393Z,21.01
2022-09-17T11:23:06.049Z,21.05
2022-09-17T11:24:49.031Z,21.08
2022-09-17T11:26:39.307Z,21.08
2022-09-17T11:28:13.949Z,21.09
2022-09-17T11:29:45.536Z,21.11
2022-09-17T11:31:35.884Z,21.12
2022-09-17T11:33:11.643Z,21.11
2022-09-17T11:34:45.975Z,21.06
2022-09-17T11:36:24.784Z,21.06
2022-09-17T11:38:02.420Z,21.05
2022-09-17T11:39:36.844Z,21.07
2022-09-17T11:41:10.768Z,21.03
2022-09-17T11:42:47.961Z,21.03
2022-09-17T11:44:25.298Z,21.05
2022-09-17T11:45:57.000Z,21.07
2022-09-17T11:47:35.317Z,21.11
2022-09-17T11:49:12.909Z,21.07
2022-09-17T11:50:56.824Z,21.10
2022-09-17T11:52:32.195Z,21.13
2022-09-17T11:54:22.498Z,21.11
2022-09-17T11:55:59.783Z,21.09
2022-09-17T11:57:35.440Z,21.09
2022-09-17T11:59:15.910Z,21.02
2022-09-17T12:00:50.459Z,21.00
2022-09-17T12:02:27.114Z,20.92
2022-09-17T12:03:59.680Z,20.95
2022-09-17T12:05:31.405Z,20.98
2022-09-17T12:07:11.331Z,21.00
2022-09-17T12:08:46.242Z,21.00
2022-09-17T12:10:32.851Z,21.01
2022-09-17T12:12:06.753Z,20.99
2022-09-17T12:13:45.970Z,20.97
2022-09-17T12:15:25.641Z,20.93
2022-09-17T12:17:00.644Z,20.88
2022-09-17T12:18:51.432Z,20.87
2022-09-17T12:20:25.534Z,20.86
2022-09-17T12:21:58.655Z,20.85
2022-09-17T12:23:39.779Z,20.84
2022-09-17T12:25:14.016Z,20.81
2022-09-17T12:26:48.859Z,20.76
2022-09-17T12:28:22.034Z,20.74
2022-09-17T12:30:01.431Z,20.72
2022-09-17T12:31:46.241Z,20.72
2022-09-17T12:33:46.122Z,20.64
2022-09-17T12:35:52.800Z,20.47
2022-09-17T12:37:27.943Z,20.46
2022-09-17T12:39:03.427Z,20.42
2022-09-17T12:40:44.391Z,20.40
2022-09-17T12:42:20.177Z,20.38
2022-09-17T12:43:57.825Z,20.39
2022-09-17T12:45:49.940Z,20.40
2022-09-17T12:47:40.726Z,20.43
2022-09-17T12:49:21.453Z,20.45
2022-09-17T12:51:12.374Z,20.47
2022-09-17T12:52:52.968Z,20.54
2022-09-17T12:54:30.851Z,20.63
2022-09-17T12:56:04.161Z,20.68
2022-09-17T12:57:57.999Z,20.74
2022-09-17T12:59:30.689Z,20.76
2022-09-17T13:01:04.682Z,20.79
2022-09-17T13:02:37.259Z,20.82
2022-09-17T13:04:16.404Z,20.87
2022-09-17T13:06:11.269Z,20.90
2022-09-17T13:08:01.879Z,20.85
2022-09-17T13:09:51.933Z,20.83
2022-09-17T13:11:24.452Z,20.80
2022-09-17T13:13:07.417Z,20.81
2022-09-17T13:14:48.684Z,20.76
2022-09-17T13:16:24.741Z,20.76
2022-09-17T13:18:23.014Z,20.72
2022-09-17T13:20:02.499Z,20.72
2022-09-17T13:21:34.436Z,20.73
2022-09-17T13:23:06.612Z,20.74
2022-09-17T13:24:38.864Z,20.74
2022-09-17T13:26:20.252Z,20.74
2022-09-17T13:27:55.400Z,20.75
2022-09-17T13:29:47.710Z,20.75
2022-09-17T13:31:22.467Z,20.75
2022-09-17T13:32:57.906Z,20.76
2022-09-17T13:34:32.309Z,20.75
2022-09-17T13:36:05.808Z,20.79
2022-09-17T13:37:41.692Z,20.82
2022-09-17T13:39:34.015Z,20.87
2022-09-17T13:41:18.655Z,20.84
2022-09-17T13:43:09.546Z,20.74
2022-09-17T13:45:19.321Z,20.61
2022-09-17T13:46:53.216Z,20.46
2022-09-17T13:48:27.335Z,20.49
2022-09-17T13:50:00.092Z,20.47
2022-09-17T13:51:35.190Z,20.51
2022-09-17T13:53:14.843Z,20.51
2022-09-17T13:54:46.636Z,20.44
2022-09-17T13:56:32.172Z,20.45
2022-09-17T13:58:04.847Z,20.45
2022-09-17T13:59:39.154Z,20.46
2022-09-17T14:01:13.774Z,20.48
2022-09-17T14:02:50.350Z,20.47
2022-09-17T14:04:42.075Z,20.49
2022-09-17T14:06:15.187Z,20.50
2022-09-17T14:07:47.795Z,20.41
2022-09-17T14:09:40.003Z,20.32
2022-09-17T14:11:33.810Z,20.25
2022-09-17T14:13:24.966Z,20.23
2022-09-17T14:14:56.996Z,20.19
2022-09-17T14:16:28.681Z,20.16
2022-09-17T14:18:01.244Z,20.12
2022-09-17T14:19:49.033Z,20.08
2022-09-17T14:21:27.473Z,20.04
2022-09-17T14:23:00.402Z,20.04
2022-09-17T14:24:47.546Z,19.98
2022-09-17T14:26:25.397Z,19.97
2022-09-17T14:28:05.156Z,19.92
2022-09-17T14:29:56.289Z,19.92
2022-09-17T14:31:32.715Z,19.98
2022-09-17T14:33:11.378Z,19.97
2022-09-17T14:34:43.922Z,19.94
2022-09-17T14:36:17.197Z,19.92
2022-09-17T14:38:07.306Z,19.93
2022-09-17T14:39:41.832Z,19.92
2022-09-17T14:41:14.182Z,19.88
2022-09-17T14:42:46.780Z,19.87
2022-09-17T14:44:19.809Z,19.84
2022-09-17T14:45:52.443Z,19.85
2022-09-17T14:47:24.028Z,19.88
2022-09-17T14:48:56.696Z,19.84
2022-09-17T14:50:29.480Z,19.82
2022-09-17T14:52:05.108Z,19.78
2022-09-17T14:53:36.775Z,19.75
2022-09-17T14:55:20.730Z,19.73
2022-09-17T14:56:53.519Z,19.69
2022-09-17T14:58:26.302Z,19.65
2022-09-17T14:59:57.905Z,19.62
2022-09-17T15:01:31.642Z,19.60
2022-09-17T15:03:03.370Z,19.61
2022-09-17T15:04:35.046Z,19.64
2022-09-17T15:06:13.348Z,19.67
2022-09-17T15:07:45.519Z,19.66
2022-09-17T15:09:17.736Z,19.65
2022-09-17T15:10:52.618Z,19.65
2022-09-17T15:12:25.379Z,19.64
2022-09-17T15:13:57.704Z,19.64
2022-09-17T15:15:29.425Z,19.64
2022-09-17T15:17:02.112Z,19.63
2022-09-17T15:18:38.658Z,19.61
2022-09-17T15:20:11.542Z,19.63
2022-09-17T15:21:43.899Z,19.66
2022-09-17T15:23:17.697Z,19.72
2022-09-17T15:24:50.562Z,19.79
2022-09-17T15:26:23.540Z,19.86
2022-09-17T15:27:56.313Z,19.83
2022-09-17T15:29:28.809Z,19.82
2022-09-17T15:31:00.535Z,19.79
2022-09-17T15:32:35.009Z,19.77
2022-09-17T15:34:12.969Z,19.68
2022-09-17T15:35:45.060Z,19.68
2022-09-17T15:37:20.852Z,19.72
2022-09-17T15:38:53.807Z,19.73
2022-09-17T15:40:32.540Z,19.68
2022-09-17T15:42:04.995Z,19.69
2022-09-17T15:43:38.159Z,19.69
2022-09-17T15:45:23.552Z,19.67
2022-09-17T15:46:57.852Z,19.58
2022-09-17T15:48:37.615Z,19.52
2022-09-17T15:50:16.787Z,19.45
2022-09-17T15:51:50.436Z,19.47
2022-09-17T15:53:23.508Z,19.48
2022-09-17T15:54:55.248Z,19.49
2022-09-17T15:56:28.443Z,19.51
2022-09-17T15:58:00.228Z,19.53
2022-09-17T15:59:32.148Z,19.60
2022-09-17T16:01:15.749Z,19.68
2022-09-17T16:02:47.590Z,19.75
2022-09-17T16:04:22.518Z,19.76
2022-09-17T16:05:56.901Z,19.73
2022-09-17T16:07:30.423Z,19.76
2022-09-17T16:09:02.915Z,19.80
2022-09-17T16:10:34.819Z,19.86
2022-09-17T16:12:08.057Z,19.91
2022-09-17T16:13:40.218Z,19.97
2022-09-17T16:15:15.083Z,19.94
2022-09-17T16:16:49.847Z,19.85
2022-09-17T16:18:21.704Z,19.78
2022-09-17T16:19:56.110Z,19.76
2022-09-17T16:21:28.596Z,19.75
2022-09-17T16:23:01.031Z,19.79
2022-09-17T16:24:34.898Z,19.82
2022-09-17T16:26:07.506Z,19.85
2022-09-17T16:27:49.409Z,19.93
2022-09-17T16:29:22.287Z,19.98
2022-09-17T16:31:17.244Z,19.95
2022-09-17T16:32:49.102Z,19.87
2022-09-17T16:34:20.843Z,19.83
2022-09-17T16:35:52.676Z,19.85
2022-09-17T16:37:24.433Z,19.88
2022-09-17T16:38:57.133Z,19.89
2022-09-17T16:40:29.131Z,19.89
2022-09-17T16:42:00.998Z,19.92
2022-09-17T16:43:34.024Z,19.94
2022-09-17T16:45:07.068Z,19.98
2022-09-17T16:46:38.980Z,19.99
2022-09-17T16:48:12.174Z,19.97
2022-09-17T16:49:44.384Z,19.92
2022-09-17T16:51:16.605Z,19.86
2022-09-17T16:52:48.714Z,19.79
2022-09-17T16:54:20.683Z,19.77
2022-09-17T16:55:52.407Z,19.76
2022-09-17T16:57:27.648Z,19.75
2022-09-17T16:58:59.307Z,19.73
2022-09-17T17:00:44.632Z,19.76
2022-09-17T17:02:27.844Z,19.80
2022-09-17T17:04:11.074Z,19.87
2022-09-17T17:05:44.030Z,19.90
2022-09-17T17:09:06.766Z,19.87
2022-09-17T17:10:52.354Z,19.84
2022-09-17T17:12:28.287Z,19.79
2022-09-17T17:14:08.624Z,19.76
2022-09-17T17:16:02.632Z,19.74
2022-09-17T17:17:39.327Z,19.70
2022-09-17T17:19:13.552Z,19.66
2022-09-17T17:20:45.501Z,19.60
2022-09-17T17:22:17.446Z,19.59
2022-09-17T17:23:52.287Z,19.63
2022-09-17T17:25:26.513Z,19.72
2022-09-17T17:26:58.206Z,19.74
2022-09-17T17:28:38.229Z,19.76
2022-09-17T17:30:10.498Z,19.86
2022-09-17T17:31:42.351Z,19.89
2022-09-17T17:33:14.109Z,19.91
2022-09-17T17:34:45.950Z,19.92
2022-09-17T17:36:20.463Z,19.83
2022-09-17T17:37:58.071Z,19.83
2022-09-17T17:39:30.245Z,19.83
2022-09-17T17:41:03.074Z,19.86
2022-09-17T17:42:38.545Z,19.92
2022-09-17T17:44:12.892Z,19.92
2022-09-17T17:45:49.558Z,19.89
2022-09-17T17:47:21.398Z,19.89
2022-09-17T17:48:53.500Z,19.92
2022-09-17T17:50:25.575Z,19.89
2022-09-17T17:51:57.421Z,19.93
2022-09-17T17:53:29.667Z,19.98
2022-09-17T17:55:01.414Z,19.97
2022-09-17T17:56:33.685Z,19.98
2022-09-17T17:58:05.574Z,19.96
2022-09-17T17:59:39.202Z,19.96
2022-09-17T18:01:15.643Z,20.03
2022-09-17T18:02:48.033Z,19.99
2022-09-17T18:04:19.958Z,19.93
2022-09-17T18:05:56.722Z,19.94
2022-09-17T18:07:30.978Z,19.97
2022-09-17T18:09:03.638Z,19.99
2022-09-17T18:10:35.356Z,19.97
2022-09-17T18:12:07.486Z,19.98
2022-09-17T18:13:39.481Z,19.95
2022-09-17T18:15:11.879Z,19.98
2022-09-17T18:16:44.450Z,19.96
2022-09-17T18:18:16.514Z,19.95
2022-09-17T18:19:49.418Z,19.92
2022-09-17T18:21:22.354Z,19.90
2022-09-17T18:22:54.565Z,19.86
2022-09-17T18:24:26.691Z,19.80
2022-09-17T18:25:59.156Z,19.76
2022-09-17T18:27:31.583Z,19.74
2022-09-17T18:29:07.798Z,19.70
2022-09-17T18:30:41.253Z,19.71
2022-09-17T18:32:13.307Z,19.75
2022-09-17T18:33:45.314Z,19.80
2022-09-17T18:35:20.169Z,19.81
2022-09-17T18:36:52.552Z,19.80
2022-09-17T18:38:24.878Z,19.82
2022-09-17T18:39:58.805Z,19.78
2022-09-17T18:41:31.994Z,19.71
2022-09-17T18:43:04.380Z,19.64
2022-09-17T18:44:36.682Z,19.60
2022-09-17T18:46:09.187Z,19.58
2022-09-17T18:47:40.887Z,19.54
2022-09-17T18:49:12.622Z,19.52
2022-09-17T18:50:45.097Z,19.55
2022-09-17T18:52:17.206Z,19.59
2022-09-17T18:53:51.629Z,19.59
2022-09-17T18:55:24.173Z,19.58
2022-09-17T18:56:56.386Z,19.59
2022-09-17T18:58:28.058Z,19.57
2022-09-17T19:00:00.306Z,19.58
2022-09-17T19:01:32.938Z,19.58
2022-09-17T19:03:04.737Z,19.57
2022-09-17T19:04:36.907Z,19.55
2022-09-17T19:06:11.644Z,19.54
2022-09-17T19:07:44.593Z,19.49
2022-09-17T19:09:17.197Z,19.49
2022-09-17T19:10:52.653Z,19.46
2022-09-17T19:12:24.494Z,19.47
2022-09-17T19:13:58.982Z,19.47
2022-09-17T19:15:34.482Z,19.45
2022-09-17T19:17:06.413Z,19.42
2022-09-17T19:18:41.860Z,19.39
2022-09-17T19:20:14.921Z,19.39
2022-09-17T19:21:47.146Z,19.36
2022-09-17T19:23:22.730Z,19.36
2022-09-17T19:24:54.445Z,19.36
2022-09-17T19:26:26.794Z,19.36
2022-09-17T19:27:59.932Z,19.31
2022-09-17T19:29:31.920Z,19.31
2022-09-17T19:31:05.964Z,19.34
2022-09-17T19:32:42.454Z,19.34
2022-09-17T19:34:15.228Z,19.35
2022-09-17T19:35:47.487Z,19.32
2022-09-17T19:37:19.548Z,19.30
2022-09-17T19:38:51.949Z,19.31
2022-09-17T19:40:23.722Z,19.26
2022-09-17T19:42:00.016Z,19.18
2022-09-17T19:43:32.849Z,19.17
2022-09-17T19:45:06.965Z,19.13
2022-09-17T19:46:38.982Z,19.09
2022-09-17T19:48:10.796Z,19.06
2022-09-17T19:49:43.939Z,19.06
2022-09-17T19:51:15.928Z,19.06
2022-09-17T19:52:47.703Z,19.04
2022-09-17T19:54:19.495Z,19.01
2022-09-17T19:55:51.366Z,19.02
2022-09-17T19:57:23.141Z,19.04
2022-09-17T19:58:54.896Z,19.02
2022-09-17T20:00:26.918Z,19.01
2022-09-17T20:01:58.702Z,18.98
2022-09-17T20:03:30.454Z,18.97
2022-09-17T20:05:02.385Z,18.99
2022-09-17T20:06:36.212Z,18.98
2022-09-17T20:08:08.259Z,18.98
2022-09-17T20:09:39.806Z,18.95
2022-09-17T20:11:11.617Z,18.95
2022-09-17T20:12:43.262Z,18.94
2022-09-17T20:14:15.257Z,18.95
2022-09-17T20:15:47.372Z,18.94
2022-09-17T20:17:19.099Z,18.91
2022-09-17T20:18:51.146Z,18.96
2022-09-17T20:20:28.368Z,18.93
2022-09-17T20:22:00.495Z,18.87
2022-09-17T20:23:32.110Z,18.80
2022-09-17T20:25:04.087Z,18.79
2022-09-17T20:26:35.683Z,18.74
2022-09-17T20:28:07.296Z,18.74
2022-09-17T20:29:38.855Z,18.73
2022-09-17T20:31:14.364Z,18.78
2022-09-17T20:32:46.478Z,18.80
2022-09-17T20:34:18.233Z,18.80
2022-09-17T20:35:50.019Z,18.78
2022-09-17T20:37:47.093Z,18.79
2022-09-17T20:39:18.215Z,18.79
2022-09-17T20:40:53.022Z,18.75
2022-09-17T20:42:24.670Z,18.80